Time;durP1;ratioP1;P1;durP2;ratioP2;P2;SDS_P1;SDS_P2;PMS_P1;PMS_P2;Temp;Humidity;BMP_temperature;BMP_pressure;BME280_temperature;BME280_humidity;BME280_pressure;Samples;Min_cycle;Max_cycle;Signal;HPM_P1;HPM_P2
2022/04/06 00:01:31;;;;;;;20.55;4.30;;;10.10;76.50;;;;;;4894942;29;20053;-85
2022/04/06 00:03:58;;;;;;;18.60;4.03;;;10.10;76.50;;;;;;4887694;29;20136;-86
2022/04/06 00:06:25;;;;;;;17.40;4.10;;;10.10;76.50;;;;;;4887777;29;20120;-86
2022/04/06 00:09:12;;;;;;;16.13;4.38;;;10.10;76.60;;;;;;4887889;29;20053;-89
2022/04/06 00:11:39;;;;;;;17.67;3.65;;;10.10;76.60;;;;;;4887511;29;20056;-87
2022/04/06 00:14:06;;;;;;;24.75;4.82;;;10.10;76.60;;;;;;4882188;29;20044;-87
2022/04/06 00:16:33;;;;;;;16.10;3.95;;;10.10;76.60;;;;;;4883804;29;20059;-86
2022/04/06 00:19:00;;;;;;;17.75;3.53;;;10.10;76.70;;;;;;4897041;29;20052;-86
2022/04/06 00:21:27;;;;;;;19.75;4.53;;;10.10;76.70;;;;;;4891456;29;20053;-86
2022/04/06 00:23:56;;;;;;;16.60;3.90;;;10.10;76.70;;;;;;4887406;29;20108;-85
2022/04/06 00:26:23;;;;;;;14.60;3.70;;;10.00;76.70;;;;;;4884696;29;20056;-86
2022/04/06 00:28:51;;;;;;;11.77;3.55;;;10.00;76.70;;;;;;4882441;29;20056;-85
2022/04/06 00:31:18;;;;;;;18.05;4.30;;;10.10;76.70;;;;;;4885591;29;20057;-86
2022/04/06 00:33:45;;;;;;;17.63;3.92;;;10.00;76.80;;;;;;4887155;29;20064;-86
2022/04/06 00:36:12;;;;;;;18.08;3.53;;;10.00;76.70;;;;;;4887241;29;20550;-86
2022/04/06 00:38:39;;;;;;;18.67;3.45;;;10.00;76.80;;;;;;4887210;29;20104;-86
2022/04/06 00:41:06;;;;;;;14.80;3.55;;;10.00;76.80;;;;;;4883434;29;20084;-85
2022/04/06 00:43:33;;;;;;;13.00;3.42;;;10.00;76.80;;;;;;4882992;29;20061;-85
2022/04/06 00:46:00;;;;;;;14.27;3.63;;;10.00;76.70;;;;;;4896430;29;20048;-86
2022/04/06 00:48:28;;;;;;;18.13;3.45;;;10.00;76.80;;;;;;4890905;29;20064;-85
2022/04/06 00:50:55;;;;;;;16.80;3.50;;;10.00;76.80;;;;;;4885721;29;20091;-85
2022/04/06 00:53:24;;;;;;;13.45;3.30;;;10.00;76.80;;;;;;4883916;29;20466;-86
2022/04/06 00:55:52;;;;;;;15.45;3.47;;;10.00;76.80;;;;;;4897324;29;20052;-86
2022/04/06 00:58:20;;;;;;;14.50;3.05;;;10.00;76.80;;;;;;4884283;29;20061;-86
2022/04/06 01:00:47;;;;;;;28.15;4.05;;;9.90;76.80;;;;;;4885548;29;20049;-86
2022/04/06 01:03:14;;;;;;;19.40;3.67;;;9.90;76.80;;;;;;4886810;29;20088;-85
2022/04/06 01:05:42;;;;;;;16.55;3.47;;;10.00;76.80;;;;;;4885468;29;20045;-86
2022/04/06 01:08:11;;;;;;;26.55;4.25;;;9.90;76.80;;;;;;4882932;29;20079;-85
2022/04/06 01:10:38;;;;;;;17.35;3.53;;;10.00;76.90;;;;;;4881353;29;20057;-87
2022/04/06 01:13:06;;;;;;;19.60;3.97;;;9.90;76.90;;;;;;4896366;29;20066;-87
2022/04/06 01:15:33;;;;;;;17.00;3.85;;;9.90;76.90;;;;;;4889649;29;20049;-87
2022/04/06 01:18:01;;;;;;;14.90;3.83;;;9.90;76.90;;;;;;4888517;29;20044;-86
2022/04/06 01:20:29;;;;;;;14.48;3.28;;;9.90;76.90;;;;;;4897097;29;20048;-86
2022/04/06 01:22:56;;;;;;;18.23;3.53;;;9.90;76.90;;;;;;4882012;29;20048;-86
2022/04/06 01:25:23;;;;;;;12.82;3.03;;;9.90;77.00;;;;;;4883693;29;20057;-86
2022/04/06 01:27:50;;;;;;;17.15;3.58;;;9.90;77.00;;;;;;4886012;29;20073;-87
2022/04/06 01:30:17;;;;;;;15.82;3.72;;;9.90;77.00;;;;;;4885296;29;20089;-86
2022/04/06 01:32:44;;;;;;;14.43;3.47;;;9.90;77.00;;;;;;4886344;29;20486;-86
2022/04/06 01:35:12;;;;;;;15.18;3.42;;;9.90;77.00;;;;;;4882058;29;20049;-86
2022/04/06 01:37:39;;;;;;;16.45;3.60;;;9.90;77.10;;;;;;4882021;29;20060;-86
2022/04/06 01:40:06;;;;;;;17.80;3.25;;;9.90;77.10;;;;;;4896115;29;20052;-86
2022/04/06 01:42:33;;;;;;;15.18;3.25;;;9.90;77.10;;;;;;4889190;29;20172;-85
2022/04/06 01:45:01;;;;;;;18.35;3.90;;;9.90;77.10;;;;;;4886076;29;20060;-85
2022/04/06 01:47:28;;;;;;;16.92;3.65;;;9.90;77.10;;;;;;4884967;29;20052;-85
2022/04/06 01:52:40;;;;;;;17.58;3.33;;;9.80;77.10;;;;;;4894430;29;20049;-85
2022/04/06 01:55:10;;;;;;;13.98;3.47;;;9.90;77.10;;;;;;4895876;29;20112;-86
2022/04/06 01:57:37;;;;;;;13.80;3.13;;;9.80;77.20;;;;;;4888923;29;20494;-87
2022/04/06 02:00:09;;;;;;;14.63;2.85;;;9.80;77.20;;;;;;4886012;29;20049;-87
2022/04/06 02:02:38;;;;;;;13.93;3.00;;;9.80;77.20;;;;;;4886067;29;20057;-86
2022/04/06 02:05:06;;;;;;;12.57;2.60;;;9.80;77.20;;;;;;4882327;29;20139;-86
2022/04/06 02:07:33;;;;;;;11.88;3.22;;;9.80;77.20;;;;;;4882151;29;20049;-86
2022/04/06 02:10:00;;;;;;;12.40;2.55;;;9.80;77.20;;;;;;4896248;29;20056;-86
2022/04/06 02:12:28;;;;;;;17.63;2.97;;;9.70;77.20;;;;;;4889879;29;20097;-86
2022/04/06 02:14:56;;;;;;;13.85;2.83;;;9.70;77.20;;;;;;4884656;29;20053;-85
2022/04/06 02:17:25;;;;;;;13.23;2.80;;;9.70;77.20;;;;;;4884228;29;20053;-86
2022/04/06 02:19:52;;;;;;;9.80;2.50;;;9.70;77.20;;;;;;4883028;29;20053;-85
2022/04/06 02:22:20;;;;;;;11.88;2.70;;;9.70;77.20;;;;;;4887535;29;20053;-87
2022/04/06 02:24:47;;;;;;;13.20;2.70;;;9.70;77.20;;;;;;4889209;29;20474;-88
2022/04/06 02:27:14;;;;;;;11.40;2.50;;;9.70;77.30;;;;;;4889326;29;20631;-86
2022/04/06 02:29:41;;;;;;;11.75;2.88;;;9.70;77.20;;;;;;4889452;29;20056;-86
2022/04/06 02:32:09;;;;;;;16.88;2.67;;;9.70;77.20;;;;;;4884634;29;20117;-86
2022/04/06 02:34:37;;;;;;;11.63;2.75;;;9.70;77.20;;;;;;4883892;29;20507;-86
2022/04/06 02:37:07;;;;;;;12.35;2.40;;;9.60;77.20;;;;;;4888876;29;20056;-86
2022/04/06 02:39:34;;;;;;;17.30;2.90;;;9.70;77.20;;;;;;4888863;29;20057;-85
2022/04/06 02:42:01;;;;;;;15.52;2.85;;;9.60;77.20;;;;;;4888006;29;20055;-86
2022/04/06 02:44:28;;;;;;;18.98;2.53;;;9.60;77.20;;;;;;4888334;29;20051;-86
2022/04/06 02:46:55;;;;;;;13.52;2.45;;;9.60;77.20;;;;;;4883561;29;20470;-86
2022/04/06 02:49:22;;;;;;;10.93;2.10;;;9.60;77.20;;;;;;4885574;29;20057;-85
2022/04/06 02:51:49;;;;;;;11.60;2.70;;;9.60;77.20;;;;;;4889093;29;20049;-86
2022/04/06 02:54:16;;;;;;;13.43;2.92;;;9.60;77.20;;;;;;4887465;29;20049;-85
2022/04/06 02:56:43;;;;;;;12.38;2.42;;;9.60;77.20;;;;;;4889058;29;20109;-86
2022/04/06 02:59:10;;;;;;;11.82;2.47;;;9.60;77.20;;;;;;4885724;29;20101;-85
2022/04/06 03:01:37;;;;;;;10.85;3.00;;;9.60;77.20;;;;;;4883532;29;20057;-85
2022/04/06 03:04:04;;;;;;;12.30;2.22;;;9.60;77.20;;;;;;4888412;29;20063;-85
2022/04/06 03:06:31;;;;;;;13.32;2.72;;;9.50;77.20;;;;;;4888839;29;20113;-85
2022/04/06 03:08:58;;;;;;;13.30;2.70;;;9.50;77.20;;;;;;4888292;29;20113;-85
2022/04/06 03:11:25;;;;;;;13.68;2.70;;;9.50;77.20;;;;;;4887082;29;20115;-85
2022/04/06 03:13:52;;;;;;;9.50;2.00;;;9.50;77.20;;;;;;4884139;29;20057;-85
2022/04/06 03:16:19;;;;;;;14.27;3.72;;;9.50;77.20;;;;;;4885390;29;20525;-85
2022/04/06 03:18:45;;;;;;;10.35;2.47;;;9.50;77.20;;;;;;4888941;29;20045;-85
2022/04/06 03:21:12;;;;;;;14.15;3.08;;;9.50;77.20;;;;;;4888613;29;20068;-85
2022/04/06 03:23:39;;;;;;;15.05;2.95;;;9.50;77.20;;;;;;4888675;29;20469;-85
2022/04/06 03:26:08;;;;;;;12.73;3.13;;;9.50;77.20;;;;;;4899026;29;20052;-84
2022/04/06 03:28:38;;;;;;;12.95;2.78;;;9.50;77.20;;;;;;4884393;29;20049;-85
2022/04/06 03:31:06;;;;;;;11.13;2.50;;;9.50;77.20;;;;;;4886726;29;20049;-86
2022/04/06 03:33:33;;;;;;;9.95;2.60;;;9.50;77.20;;;;;;4888060;29;20059;-86
2022/04/06 03:36:00;;;;;;;11.25;2.58;;;9.50;77.20;;;;;;4891542;29;20126;-85
2022/04/06 03:38:27;;;;;;;12.52;2.38;;;9.50;77.20;;;;;;4897441;29;20060;-86
2022/04/06 03:40:54;;;;;;;10.85;2.75;;;9.40;77.20;;;;;;4883757;29;20052;-86
2022/04/06 03:43:22;;;;;;;10.88;2.35;;;9.50;77.20;;;;;;4885694;29;20112;-85
2022/04/06 03:45:49;;;;;;;15.82;2.85;;;9.40;77.20;;;;;;4888039;29;20132;-85
2022/04/06 03:48:16;;;;;;;10.77;2.55;;;9.50;77.10;;;;;;4888116;29;20056;-85
2022/04/06 03:50:44;;;;;;;13.25;2.55;;;9.50;77.10;;;;;;4887907;29;20048;-85
2022/04/06 03:53:11;;;;;;;13.00;2.70;;;9.50;77.10;;;;;;4884360;29;20052;-85
2022/04/06 03:55:38;;;;;;;13.82;1.77;;;9.50;77.10;;;;;;4882453;29;20061;-86
2022/04/06 03:58:06;;;;;;;10.27;2.00;;;9.50;77.10;;;;;;4887427;29;20101;-85
2022/04/06 04:00:34;;;;;;;10.15;2.58;;;9.50;77.00;;;;;;4887855;29;20052;-87
2022/04/06 04:03:01;;;;;;;8.40;2.20;;;9.40;77.00;;;;;;4887792;29;20057;-87
2022/04/06 04:05:28;;;;;;;8.20;2.33;;;9.40;77.00;;;;;;4885289;29;20068;-86
2022/04/06 04:07:55;;;;;;;12.00;2.13;;;9.40;77.00;;;;;;4882039;29;20056;-86
2022/04/06 04:10:22;;;;;;;6.75;2.08;;;9.40;76.90;;;;;;4885251;29;20056;-86
2022/04/06 04:12:49;;;;;;;10.93;2.13;;;9.40;76.90;;;;;;4887247;29;20056;-86
2022/04/06 04:15:16;;;;;;;11.75;2.25;;;9.40;76.90;;;;;;4887531;29;20510;-85
2022/04/06 04:17:43;;;;;;;9.85;2.15;;;9.40;76.80;;;;;;4887693;29;20056;-86
2022/04/06 04:20:10;;;;;;;9.20;1.70;;;9.40;76.80;;;;;;4883778;29;20964;-85
2022/04/06 04:22:37;;;;;;;8.32;1.80;;;9.40;76.80;;;;;;4883289;29;20109;-86
2022/04/06 04:25:06;;;;;;;10.82;1.80;;;9.40;76.70;;;;;;4886980;29;20063;-86
2022/04/06 04:27:33;;;;;;;8.43;1.88;;;9.40;76.70;;;;;;4886228;29;20049;-87
2022/04/06 04:30:00;;;;;;;12.85;2.03;;;9.40;76.60;;;;;;4886055;29;20045;-85
2022/04/06 04:32:33;;;;;;;10.47;2.00;;;9.40;76.60;;;;;;4886924;29;20045;-86
2022/04/06 04:35:05;;;;;;;9.77;1.92;;;9.40;76.50;;;;;;4881282;29;20304;-86
2022/04/06 04:37:33;;;;;;;9.30;2.00;;;9.40;76.50;;;;;;4894625;29;20052;-87
2022/04/06 04:40:00;;;;;;;9.38;1.98;;;9.40;76.40;;;;;;4887112;29;20526;-86
2022/04/06 04:42:27;;;;;;;9.60;2.22;;;9.40;76.40;;;;;;4893183;29;20057;-86
2022/04/06 04:44:54;;;;;;;8.75;1.90;;;9.40;76.30;;;;;;4895257;29;20048;-86
2022/04/06 04:47:22;;;;;;;10.15;1.70;;;9.40;76.20;;;;;;4884951;29;20475;-86
2022/04/06 04:49:48;;;;;;;7.10;1.27;;;9.40;76.20;;;;;;4882113;29;20583;-86
2022/04/06 04:52:15;;;;;;;7.78;1.85;;;9.40;76.20;;;;;;4883477;29;20044;-86
2022/04/06 04:54:42;;;;;;;6.80;1.50;;;9.40;76.10;;;;;;4885687;29;20105;-87
2022/04/06 04:57:09;;;;;;;7.47;1.42;;;9.40;76.10;;;;;;4886833;29;20048;-87
2022/04/06 04:59:36;;;;;;;7.15;1.58;;;9.40;76.10;;;;;;4886751;29;20048;-86
2022/04/06 05:02:04;;;;;;;10.85;1.67;;;9.40;76.00;;;;;;4882464;29;20524;-86
2022/04/06 05:04:31;;;;;;;6.85;1.65;;;9.40;75.90;;;;;;4897634;29;20165;-86
2022/04/06 05:06:58;;;;;;;6.25;1.80;;;9.40;75.80;;;;;;4885662;29;20431;-86
2022/04/06 05:09:25;;;;;;;8.38;1.85;;;9.40;75.80;;;;;;4886576;29;20052;-87
2022/04/06 05:11:52;;;;;;;5.85;1.33;;;9.40;75.80;;;;;;4885449;29;20183;-85
2022/04/06 05:14:18;;;;;;;9.55;1.70;;;9.40;75.70;;;;;;4883094;29;20052;-85
2022/04/06 05:16:45;;;;;;;6.45;1.35;;;9.40;75.70;;;;;;4882160;29;20060;-85
2022/04/06 05:19:12;;;;;;;7.45;1.80;;;9.40;75.60;;;;;;4884983;29;20570;-85
2022/04/06 05:21:40;;;;;;;8.82;1.83;;;9.40;75.50;;;;;;4886619;29;20128;-86
2022/04/06 05:24:07;;;;;;;5.72;1.50;;;9.40;75.50;;;;;;4886458;29;20056;-88
2022/04/06 05:26:39;;;;;;;7.78;1.48;;;9.40;75.40;;;;;;4886333;29;20055;-86
2022/04/06 05:29:07;;;;;;;9.55;1.67;;;9.40;75.40;;;;;;4882143;29;20052;-86
2022/04/06 05:31:33;;;;;;;10.23;1.88;;;9.40;75.30;;;;;;4882827;29;20057;-87
2022/04/06 05:34:00;;;;;;;10.80;1.70;;;9.40;75.30;;;;;;4885733;29;20131;-86
2022/04/06 05:36:28;;;;;;;8.00;1.38;;;9.40;75.20;;;;;;4892802;29;20112;-86
2022/04/06 05:38:59;;;;;;;5.72;1.17;;;9.40;75.20;;;;;;4894349;29;20143;-86
2022/04/06 05:41:26;;;;;;;6.57;1.45;;;9.40;75.10;;;;;;4883961;29;20103;-86
2022/04/06 05:43:53;;;;;;;5.97;1.20;;;9.40;75.10;;;;;;4881890;29;20075;-85
2022/04/06 05:46:20;;;;;;;7.85;1.30;;;9.40;75.00;;;;;;4897403;29;20490;-86
2022/04/06 05:48:47;;;;;;;7.05;1.60;;;9.40;74.90;;;;;;4887247;29;20064;-85
2022/04/06 05:51:14;;;;;;;4.60;1.10;;;9.40;74.80;;;;;;4886109;29;20097;-85
2022/04/06 05:53:41;;;;;;;9.70;1.55;;;9.40;74.70;;;;;;4886047;29;20045;-85
2022/04/06 05:56:08;;;;;;;10.18;1.60;;;9.40;74.60;;;;;;4885816;29;20045;-85
2022/04/06 05:58:34;;;;;;;10.07;1.60;;;9.40;74.50;;;;;;4885891;29;20526;-85
2022/04/06 06:01:02;;;;;;;6.05;1.92;;;9.40;74.40;;;;;;4900683;29;20056;-86
2022/04/06 06:03:29;;;;;;;9.98;1.30;;;9.40;74.30;;;;;;4892206;29;20057;-86
2022/04/06 06:05:56;;;;;;;6.57;1.27;;;9.40;74.30;;;;;;4889841;29;20052;-85
2022/04/06 06:08:23;;;;;;;7.18;1.45;;;9.40;74.20;;;;;;4887025;29;20814;-85
2022/04/06 06:10:50;;;;;;;10.90;2.63;;;9.40;74.10;;;;;;4885181;29;20104;-86
2022/04/06 06:13:17;;;;;;;4.28;1.17;;;9.40;74.00;;;;;;4887979;29;20511;-86
2022/04/06 06:15:44;;;;;;;6.75;1.63;;;9.40;74.00;;;;;;4889701;29;20064;-85
2022/04/06 06:18:12;;;;;;;4.30;1.42;;;9.40;73.90;;;;;;4889267;29;20045;-86
2022/04/06 06:20:39;;;;;;;6.25;1.42;;;9.40;73.80;;;;;;4889616;29;20048;-86
2022/04/06 06:23:07;;;;;;;7.45;1.58;;;9.40;73.80;;;;;;4884549;29;20052;-86
2022/04/06 06:25:34;;;;;;;6.35;1.60;;;9.40;73.80;;;;;;4893350;29;20064;-85
2022/04/06 06:28:01;;;;;;;6.85;1.48;;;9.40;73.80;;;;;;4898467;29;20052;-87
2022/04/06 06:30:28;;;;;;;6.65;1.95;;;9.40;73.70;;;;;;4897522;29;20462;-87
2022/04/06 06:32:55;;;;;;;5.45;1.30;;;9.50;73.70;;;;;;4896349;29;20562;-86
2022/04/06 06:35:24;;;;;;;8.00;1.55;;;9.50;73.70;;;;;;4896351;29;20060;-86
2022/04/06 06:37:53;;;;;;;5.55;1.50;;;9.50;73.70;;;;;;4898461;29;20071;-86
2022/04/06 06:40:23;;;;;;;6.40;1.60;;;9.50;73.70;;;;;;4911208;29;20071;-85
2022/04/06 06:42:50;;;;;;;6.05;1.20;;;9.60;73.70;;;;;;4898758;29;20048;-85
2022/04/06 06:45:18;;;;;;;5.70;1.30;;;9.50;73.70;;;;;;4895714;29;20101;-85
2022/04/06 06:47:45;;;;;;;7.07;1.25;;;9.50;73.70;;;;;;4897600;29;20100;-86
2022/04/06 06:50:16;;;;;;;7.25;1.60;;;9.60;73.70;;;;;;4897319;29;20053;-87
2022/04/06 06:52:43;;;;;;;5.13;1.20;;;9.60;73.60;;;;;;4898002;29;20421;-87
2022/04/06 06:55:14;;;;;;;5.38;1.27;;;9.60;73.60;;;;;;4897570;29;20459;-87
2022/04/06 06:57:41;;;;;;;4.82;1.35;;;9.70;73.60;;;;;;4895772;29;20486;-87
2022/04/06 07:00:11;;;;;;;8.40;1.50;;;9.70;73.50;;;;;;4895436;29;20052;-87
2022/04/06 07:02:42;;;;;;;8.23;1.67;;;9.70;73.50;;;;;;4895451;29;20824;-85
2022/04/06 07:05:10;;;;;;;9.88;1.83;;;9.70;73.50;;;;;;4895753;29;20057;-87
2022/04/06 07:07:57;;;;;;;7.50;1.58;;;9.70;73.50;;;;;;4897924;29;20045;-85
2022/04/06 07:10:25;;;;;;;7.28;1.50;;;9.80;73.50;;;;;;4897487;29;20502;-87
2022/04/06 07:12:53;;;;;;;4.35;1.25;;;9.70;73.40;;;;;;4895285;29;20056;-86
2022/04/06 07:15:21;;;;;;;6.38;1.67;;;9.80;73.40;;;;;;4896867;29;20119;-86
2022/04/06 07:17:56;;;;;;;9.95;2.20;;;9.80;73.40;;;;;;4895608;29;20044;-86
2022/04/06 07:20:26;;;;;;;9.93;1.60;;;9.80;73.50;;;;;;4895597;29;20408;-87
2022/04/06 07:22:53;;;;;;;4.80;1.60;;;9.80;73.50;;;;;;4897278;29;20057;-86
2022/04/06 07:25:21;;;;;;;5.63;1.50;;;9.80;73.60;;;;;;4898020;29;20111;-87
2022/04/06 07:27:48;;;;;;;11.00;1.70;;;9.90;73.60;;;;;;4896893;29;20053;-85
2022/04/06 07:30:15;;;;;;;6.05;1.63;;;9.90;73.60;;;;;;4893637;29;20056;-87
2022/04/06 07:32:43;;;;;;;7.10;1.92;;;9.90;73.70;;;;;;4895460;29;20506;-86
2022/04/06 07:35:10;;;;;;;9.32;2.00;;;9.90;73.70;;;;;;4895280;29;20056;-86
2022/04/06 07:37:39;;;;;;;8.32;1.95;;;9.90;73.80;;;;;;4898547;29;20056;-86
2022/04/06 07:40:10;;;;;;;11.52;2.60;;;10.00;73.80;;;;;;4895381;29;20059;-87
2022/04/06 07:42:38;;;;;;;7.03;2.15;;;10.00;73.90;;;;;;4895100;29;20521;-86
2022/04/06 07:45:07;;;;;;;6.70;2.10;;;10.00;73.90;;;;;;4896172;29;20097;-88
2022/04/06 07:47:35;;;;;;;8.55;2.20;;;10.00;74.00;;;;;;4894959;29;20059;-86
2022/04/06 07:50:03;;;;;;;7.22;2.30;;;10.10;74.00;;;;;;4895206;29;20112;-86
2022/04/06 07:52:31;;;;;;;7.97;2.35;;;10.10;74.00;;;;;;4898834;29;20533;-86
2022/04/06 07:54:58;;;;;;;8.80;2.20;;;10.10;74.00;;;;;;4894642;29;20130;-86
2022/04/06 07:57:27;;;;;;;7.40;1.85;;;10.20;74.00;;;;;;4894445;29;20061;-87
2022/04/06 07:59:55;;;;;;;6.57;1.95;;;10.20;74.10;;;;;;4894065;29;20053;-86
2022/04/06 08:02:21;;;;;;;5.95;2.00;;;10.20;74.10;;;;;;4894832;29;20068;-86
2022/04/06 08:04:50;;;;;;;11.20;2.35;;;10.20;74.20;;;;;;4896651;29;20053;-85
2022/04/06 08:07:17;;;;;;;5.55;1.73;;;10.20;74.20;;;;;;4896750;29;20051;-87
2022/04/06 08:09:45;;;;;;;6.97;2.20;;;10.30;74.10;;;;;;4894522;29;20048;-87
2022/04/06 08:12:12;;;;;;;11.73;2.30;;;10.30;74.10;;;;;;4894135;29;20048;-87
2022/04/06 08:14:39;;;;;;;6.97;1.90;;;10.30;74.10;;;;;;4894664;29;20052;-86
2022/04/06 08:17:06;;;;;;;6.18;2.10;;;10.30;74.10;;;;;;4894253;29;20041;-87
2022/04/06 08:19:33;;;;;;;8.23;2.13;;;10.40;74.10;;;;;;4894799;29;20108;-87
2022/04/06 08:22:00;;;;;;;6.00;1.70;;;10.40;74.10;;;;;;4894693;29;20437;-86
2022/04/06 08:24:32;;;;;;;6.95;1.92;;;10.40;74.10;;;;;;4894216;29;20131;-86
2022/04/06 08:27:00;;;;;;;10.18;1.90;;;10.40;74.00;;;;;;4895057;29;20100;-87
2022/04/06 08:29:27;;;;;;;6.15;2.15;;;10.50;73.90;;;;;;4895591;29;20125;-86
2022/04/06 08:31:54;;;;;;;5.20;1.73;;;10.50;73.80;;;;;;4895806;29;20053;-86
2022/04/06 08:34:21;;;;;;;5.97;1.38;;;10.60;73.70;;;;;;4895707;29;20569;-86
2022/04/06 08:36:48;;;;;;;8.18;1.80;;;10.60;73.60;;;;;;4894005;29;20501;-86
2022/04/06 08:39:15;;;;;;;5.93;1.80;;;10.60;73.50;;;;;;4894115;29;20052;-86
2022/04/06 08:41:42;;;;;;;3.70;1.30;;;10.70;73.40;;;;;;4892806;29;20048;-86
2022/04/06 08:44:09;;;;;;;10.40;1.83;;;10.70;73.30;;;;;;4894223;29;20540;-86
2022/04/06 08:46:39;;;;;;;10.60;2.10;;;10.80;73.30;;;;;;4897387;29;20089;-86
2022/04/06 08:49:06;;;;;;;7.18;1.73;;;10.80;73.20;;;;;;4895267;29;20060;-86
2022/04/06 08:51:34;;;;;;;7.82;1.58;;;10.90;73.10;;;;;;4893732;29;20052;-86
2022/04/06 08:54:01;;;;;;;11.43;1.40;;;10.90;72.90;;;;;;4895211;29;20048;-87
2022/04/06 08:56:29;;;;;;;4.95;1.50;;;10.90;72.80;;;;;;4893390;29;20429;-87
2022/04/06 08:58:56;;;;;;;7.53;2.17;;;10.90;72.60;;;;;;4894197;29;20059;-86
2022/04/06 09:01:23;;;;;;;6.65;1.70;;;11.00;72.50;;;;;;4892835;29;20052;-89
2022/04/06 09:03:50;;;;;;;7.68;1.85;;;11.00;72.40;;;;;;4893399;29;20471;-86
2022/04/06 09:06:18;;;;;;;9.20;1.60;;;11.00;72.20;;;;;;4893628;29;20064;-87
2022/04/06 09:08:47;;;;;;;6.28;1.20;;;11.10;72.10;;;;;;4895110;29;20044;-86
2022/04/06 09:11:20;;;;;;;5.88;1.40;;;11.00;72.00;;;;;;4894877;29;20061;-87
2022/04/06 09:13:48;;;;;;;6.47;1.73;;;11.10;72.00;;;;;;4895935;29;20561;-87
2022/04/06 09:16:17;;;;;;;6.53;1.45;;;11.10;71.90;;;;;;4895433;29;20053;-88
2022/04/06 09:18:48;;;;;;;7.82;1.60;;;11.10;71.80;;;;;;4893471;29;20425;-88
2022/04/06 09:21:18;;;;;;;4.78;1.33;;;11.10;71.70;;;;;;4895637;29;20051;-87
2022/04/06 09:23:48;;;;;;;9.13;1.83;;;11.20;71.60;;;;;;4893088;29;20052;-86
2022/04/06 09:26:20;;;;;;;11.77;2.08;;;11.20;71.50;;;;;;4893032;29;20052;-87
2022/04/06 09:28:49;;;;;;;7.40;1.50;;;11.20;71.40;;;;;;4894300;29;20052;-86
2022/04/06 09:31:17;;;;;;;6.20;1.55;;;11.10;71.40;;;;;;4896041;29;20052;-86
2022/04/06 09:33:59;;;;;;;7.18;1.80;;;11.10;71.30;;;;;;4894825;29;20076;-86
2022/04/06 09:36:30;;;;;;;5.18;1.73;;;11.20;71.20;;;;;;4893177;29;20391;-86
2022/04/06 09:38:57;;;;;;;9.63;1.80;;;11.20;71.20;;;;;;4889376;29;20415;-87
2022/04/06 09:41:25;;;;;;;11.95;1.70;;;11.20;71.20;;;;;;4894611;29;20100;-84
2022/04/06 09:43:53;;;;;;;10.27;1.48;;;11.20;71.20;;;;;;4895209;29;20053;-84
2022/04/06 09:49:18;;;;;;;9.88;1.60;;;11.10;71.10;;;;;;4896255;29;20509;-84
2022/04/06 09:51:49;;;;;;;4.28;1.50;;;11.20;71.20;;;;;;4893180;29;20052;-83
2022/04/06 09:54:16;;;;;;;8.00;1.60;;;11.20;71.20;;;;;;4892691;29;20045;-84
2022/04/06 09:56:44;;;;;;;6.95;1.95;;;11.20;71.10;;;;;;4892813;29;20048;-86
2022/04/06 09:59:13;;;;;;;7.57;1.60;;;11.20;71.20;;;;;;4893519;29;20049;-86
2022/04/06 10:01:47;;;;;;;8.90;1.70;;;11.20;71.20;;;;;;4894350;29;20061;-85
2022/04/06 10:04:24;;;;;;;8.18;2.05;;;11.30;71.20;;;;;;4895321;29;20531;-85
2022/04/06 10:06:52;;;;;;;7.50;1.83;;;11.20;71.10;;;;;;4892718;29;20398;-85
2022/04/06 10:09:20;;;;;;;5.72;1.67;;;11.30;71.10;;;;;;4892476;29;20067;-84
2022/04/06 10:11:51;;;;;;;6.00;1.73;;;11.20;71.10;;;;;;4891680;29;20056;-86
2022/04/06 10:14:19;;;;;;;9.70;2.45;;;11.20;71.10;;;;;;4892908;29;20056;-84
2022/04/06 10:16:46;;;;;;;9.40;2.17;;;11.20;71.10;;;;;;4895319;29;20063;-84
2022/04/06 10:19:16;;;;;;;3.95;1.45;;;11.20;71.10;;;;;;4894621;29;20053;-84
2022/04/06 10:22:01;;;;;;;7.55;1.75;;;11.20;71.10;;;;;;4894086;29;20045;-83
2022/04/06 10:24:51;;;;;;;6.85;1.77;;;11.20;71.20;;;;;;4892232;29;20048;-83
2022/04/06 10:27:25;;;;;;;8.43;1.85;;;11.20;71.20;;;;;;4892640;29;20478;-83
2022/04/06 10:30:10;;;;;;;7.85;1.60;;;11.20;71.30;;;;;;4892777;29;20079;-84
2022/04/06 10:32:45;;;;;;;7.10;1.83;;;11.20;71.30;;;;;;4892436;29;20442;-82
2022/04/06 10:35:34;;;;;;;10.35;1.98;;;11.20;71.40;;;;;;4878891;29;20053;-82
2022/04/06 10:38:04;;;;;;;4.57;1.65;;;11.20;71.50;;;;;;4892910;29;20056;-82
2022/04/06 10:40:46;;;;;;;8.80;1.90;;;11.20;71.60;;;;;;4896036;29;20049;-83
2022/04/06 10:43:35;;;;;;;7.40;2.10;;;11.30;71.70;;;;;;4899596;29;20060;-83
2022/04/06 10:46:16;;;;;;;7.70;1.88;;;11.30;71.70;;;;;;4898277;29;20116;-84
2022/04/06 10:49:18;;;;;;;8.52;1.75;;;11.30;71.70;;;;;;4895987;29;20052;-85
2022/04/06 10:51:48;;;;;;;3.17;1.38;;;11.30;71.90;;;;;;4895654;29;20060;-85
2022/04/06 10:54:16;;;;;;;7.15;2.10;;;11.30;72.00;;;;;;4895838;29;20049;-84
2022/04/06 10:56:48;;;;;;;7.15;1.58;;;11.30;72.20;;;;;;4895666;29;20052;-84
2022/04/06 10:59:16;;;;;;;7.07;2.00;;;11.30;72.40;;;;;;4897528;29;20100;-84
2022/04/06 11:01:48;;;;;;;7.47;1.80;;;11.30;72.50;;;;;;4898092;29;20053;-84
2022/04/06 11:04:21;;;;;;;10.23;1.98;;;11.30;72.60;;;;;;4896334;29;20060;-84
2022/04/06 11:06:56;;;;;;;5.80;1.98;;;11.20;72.60;;;;;;4895234;29;20055;-84
2022/04/06 11:12:21;;;;;;;7.22;1.80;;;11.20;72.80;;;;;;4895288;29;20059;-84
2022/04/06 11:15:00;;;;;;;7.95;1.75;;;11.20;72.70;;;;;;4895683;29;20458;-84
2022/04/06 11:17:37;;;;;;;6.07;1.70;;;11.20;72.80;;;;;;4895483;29;20116;-84
2022/04/06 11:20:15;;;;;;;7.90;1.88;;;11.20;72.80;;;;;;4896031;29;20119;-84
2022/04/06 11:22:54;;;;;;;7.25;2.33;;;11.20;72.90;;;;;;4894686;29;20064;-83
2022/04/06 11:25:26;;;;;;;5.82;1.67;;;11.20;73.00;;;;;;4898269;29;20068;-84
2022/04/06 11:27:55;;;;;;;6.75;1.90;;;11.20;73.20;;;;;;4895481;29;20053;-87
2022/04/06 11:30:26;;;;;;;7.97;2.13;;;11.20;73.20;;;;;;4896738;29;20053;-84
2022/04/06 11:32:57;;;;;;;8.63;2.22;;;11.20;73.30;;;;;;4895359;29;20067;-86
2022/04/06 11:35:36;;;;;;;5.55;2.00;;;11.20;73.40;;;;;;4896538;29;20052;-85
2022/04/06 11:38:05;;;;;;;4.70;1.80;;;11.20;73.50;;;;;;4896859;29;20057;-85
2022/04/06 11:40:33;;;;;;;6.10;2.05;;;11.20;73.60;;;;;;4895459;29;20052;-85
2022/04/06 11:43:05;;;;;;;4.50;1.67;;;11.20;73.80;;;;;;4894940;29;20049;-85
2022/04/06 11:45:36;;;;;;;8.85;2.20;;;11.20;74.00;;;;;;4895080;29;20056;-85
2022/04/06 11:48:08;;;;;;;3.83;1.77;;;11.20;74.30;;;;;;4895174;29;20052;-85
2022/04/06 11:50:37;;;;;;;5.43;1.70;;;11.10;74.50;;;;;;4896460;29;20044;-85
2022/04/06 11:53:06;;;;;;;7.47;1.80;;;11.10;74.70;;;;;;4879065;29;20049;-85
2022/04/06 11:55:50;;;;;;;7.60;2.15;;;11.10;74.90;;;;;;4895057;29;20052;-85
2022/04/06 11:58:33;;;;;;;;;;;11.10;75.10;;;;;;4897454;29;20060;-84
2022/04/06 12:01:15;;;;;;;5.90;2.15;;;11.10;75.30;;;;;;4894885;29;20006;-84
2022/04/06 12:03:44;;;;;;;9.23;2.35;;;11.10;75.50;;;;;;4894747;29;20055;-84
2022/04/06 12:06:14;;;;;;;6.07;2.30;;;11.10;75.70;;;;;;4894345;29;20053;-85
2022/04/06 12:08:43;;;;;;;7.68;2.10;;;11.00;76.00;;;;;;4894626;29;20048;-84
2022/04/06 12:11:10;;;;;;;6.53;2.20;;;11.00;76.20;;;;;;4894246;29;20081;-84
2022/04/06 12:13:39;;;;;;;8.35;1.90;;;11.00;76.40;;;;;;4896802;29;20104;-84
2022/04/06 12:16:08;;;;;;;6.13;2.08;;;11.00;76.50;;;;;;4894749;29;20056;-84
2022/04/06 12:18:38;;;;;;;8.57;2.67;;;11.00;76.60;;;;;;4895760;29;20096;-84
2022/04/06 12:21:22;;;;;;;9.70;2.20;;;11.00;76.70;;;;;;4895948;29;20462;-85
2022/04/06 12:23:50;;;;;;;7.07;2.40;;;11.00;76.80;;;;;;4894402;29;20045;-85
2022/04/06 12:26:17;;;;;;;7.72;2.30;;;10.90;76.80;;;;;;4894519;29;20049;-85
2022/04/06 12:28:48;;;;;;;6.95;2.47;;;11.00;77.00;;;;;;4895657;29;20060;-85
2022/04/06 12:31:15;;;;;;;5.30;2.20;;;11.00;77.10;;;;;;4895936;29;20048;-85
2022/04/06 12:33:50;;;;;;;5.82;2.30;;;11.00;77.20;;;;;;4895490;29;20057;-85
2022/04/06 12:36:27;;;;;;;7.05;2.15;;;11.10;77.20;;;;;;4894247;29;20053;-84
2022/04/06 12:38:57;;;;;;;4.45;2.10;;;11.10;77.20;;;;;;4893875;29;20470;-84
2022/04/06 12:41:25;;;;;;;7.80;2.00;;;11.10;77.20;;;;;;4894175;29;20076;-84
2022/04/06 12:43:55;;;;;;;5.30;2.05;;;11.10;77.10;;;;;;4895906;29;20139;-84
2022/04/06 12:46:43;;;;;;;5.55;2.10;;;11.10;77.00;;;;;;4896732;29;20064;-84
2022/04/06 12:49:28;;;;;;;4.05;1.92;;;11.20;77.00;;;;;;4894480;29;20052;-84
2022/04/06 12:52:07;;;;;;;8.38;2.40;;;11.20;77.00;;;;;;4893668;29;20562;-84
2022/04/06 12:54:37;;;;;;;7.15;2.10;;;11.20;76.90;;;;;;4895252;29;20060;-83
2022/04/06 12:57:13;;;;;;;4.00;1.80;;;11.20;76.90;;;;;;4895138;29;20466;-83
2022/04/06 12:59:43;;;;;;;6.88;2.50;;;11.20;76.80;;;;;;4893667;29;20056;-84
2022/04/06 13:02:36;;;;;;;4.32;2.15;;;11.20;76.80;;;;;;4893756;29;20484;-86
2022/04/06 13:05:06;;;;;;;;;;;11.30;76.80;;;;;;4879337;29;20048;-83
2022/04/06 13:07:36;;;;;;;5.57;2.33;;;11.20;76.70;;;;;;4894054;29;20385;-85